Time;durP1;ratioP1;P1;durP2;ratioP2;P2;SDS_P1;SDS_P2;PMS_P1;PMS_P2;Temp;Humidity;BMP_temperature;BMP_pressure;BME280_temperature;BME280_humidity;BME280_pressure;Samples;Min_cycle;Max_cycle;Signal;HPM_P1;HPM_P2
2022/11/14 00:01:26;;;;;;;;;;;7.80;99.90;;;;;;5109897;28;1176;-68
2022/11/14 00:04:10;;;;;;;;;;;7.90;99.90;;;;;;5106596;28;2012;-68
2022/11/14 00:06:54;;;;;;;;;;;8.00;99.90;;;;;;5110629;28;1080;-68
2022/11/14 00:09:41;;;;;;;;;;;8.00;99.90;;;;;;5105211;28;1246;-68
2022/11/14 00:12:26;;;;;;;;;;;7.90;99.90;;;;;;5110156;28;1138;-68
2022/11/14 00:15:11;;;;;;;;;;;7.90;99.90;;;;;;5109588;28;1017;-68
2022/11/14 00:17:55;;;;;;;;;;;7.90;99.90;;;;;;5100918;28;1614;-68
2022/11/14 00:20:39;;;;;;;;;;;7.90;99.90;;;;;;5109621;28;1009;-68
2022/11/14 00:23:23;;;;;;;;;;;7.90;99.90;;;;;;5109372;28;1914;-68
2022/11/14 00:26:07;;;;;;;;;;;7.90;99.90;;;;;;5110826;28;1108;-68
2022/11/14 00:28:52;;;;;;;;;;;8.20;99.90;;;;;;5108858;28;1343;-68
2022/11/14 00:31:36;;;;;;;;;;;7.90;99.90;;;;;;5107854;28;1224;-68
2022/11/14 00:34:20;;;;;;;;;;;7.90;99.90;;;;;;5109790;28;1258;-68
2022/11/14 00:37:04;;;;;;;;;;;7.90;99.90;;;;;;5107996;28;1096;-68
2022/11/14 00:39:49;;;;;;;;;;;7.90;99.90;;;;;;5109096;28;1164;-68
2022/11/14 00:42:33;;;;;;;;;;;8.00;99.90;;;;;;5109052;28;1902;-68
2022/11/14 00:45:17;;;;;;;;;;;7.90;99.90;;;;;;5107556;28;1184;-68
2022/11/14 00:48:01;;;;;;;;;;;7.90;99.90;;;;;;5109187;28;1199;-68
2022/11/14 00:50:45;;;;;;;;;;;7.90;99.90;;;;;;5086909;28;1242;-68
2022/11/14 00:53:29;;;;;;;;;;;7.90;99.90;;;;;;5108884;28;1347;-67
2022/11/14 00:56:13;;;;;;;;;;;7.90;99.90;;;;;;5106549;28;1204;-68
2022/11/14 00:58:57;;;;;;;;;;;7.90;99.90;;;;;;5109568;28;1167;-68
2022/11/14 01:01:41;;;;;;;;;;;8.00;99.90;;;;;;5109922;28;1164;-68
2022/11/14 01:04:25;;;;;;;;;;;7.90;99.90;;;;;;5108689;28;1909;-68
2022/11/14 01:07:10;;;;;;;;;;;7.80;99.90;;;;;;5109406;28;1164;-68
2022/11/14 01:09:54;;;;;;;;;;;7.80;99.90;;;;;;5109736;28;1088;-68
2022/11/14 01:12:38;;;;;;;;;;;7.80;99.90;;;;;;5108746;28;1088;-68
2022/11/14 01:15:22;;;;;;;;;;;7.80;99.90;;;;;;5109511;28;1151;-68
2022/11/14 01:18:06;;;;;;;;;;;7.80;99.90;;;;;;5081122;28;1690;-68
2022/11/14 01:20:50;;;;;;;;;;;7.80;99.90;;;;;;5109402;28;1143;-68
2022/11/14 01:23:34;;;;;;;;;;;7.80;99.90;;;;;;5109040;28;1937;-68
2022/11/14 01:26:18;;;;;;;;;;;7.70;99.90;;;;;;5109084;28;1112;-68
2022/11/14 01:29:03;;;;;;;;;;;7.80;99.90;;;;;;5109277;28;1318;-68
2022/11/14 01:31:47;;;;;;;;;;;7.70;99.90;;;;;;5108410;28;1167;-68
2022/11/14 01:34:31;;;;;;;;;;;7.70;99.90;;;;;;5109415;28;1195;-67
2022/11/14 01:37:15;;;;;;;;;;;7.70;99.90;;;;;;5109094;28;1202;-68
2022/11/14 01:39:59;;;;;;;;;;;7.70;99.90;;;;;;5108007;28;1120;-68
2022/11/14 01:43:02;;;;;;;;;;;7.70;99.90;;;;;;5109314;28;1979;-68
2022/11/14 01:45:52;;;;;;;;;;;7.70;99.90;;;;;;5108790;28;1066;-68
2022/11/14 01:48:42;;;;;;;;;;;7.70;99.90;;;;;;5109030;28;1204;-68
2022/11/14 01:51:45;;;;;;;;;;;7.70;99.90;;;;;;5109052;28;1076;-68
2022/11/14 01:54:31;;;;;;;;;;;7.70;99.90;;;;;;5108203;28;1187;-68
2022/11/14 01:57:17;;;;;;;;;;;7.70;99.90;;;;;;5108924;28;1069;-68
2022/11/14 02:00:04;;;;;;;;;;;7.60;99.90;;;;;;5094871;28;1183;-68
2022/11/14 02:02:49;;;;;;;;;;;7.50;99.90;;;;;;5108676;28;1909;-68
2022/11/14 02:05:33;;;;;;;;;;;7.50;99.90;;;;;;5108156;28;1108;-68
2022/11/14 02:08:18;;;;;;;;;;;7.40;99.90;;;;;;5086669;28;1104;-68
2022/11/14 02:11:02;;;;;;;;;;;7.40;99.90;;;;;;5107343;28;1206;-68
2022/11/14 02:13:46;;;;;;;;;;;7.30;99.90;;;;;;5108698;28;1121;-68
2022/11/14 02:16:30;;;;;;;;;;;7.00;99.90;;;;;;5102922;28;1210;-68
2022/11/14 02:19:16;;;;;;;;;;;7.20;99.90;;;;;;5107454;28;1219;-68
2022/11/14 02:21:59;;;;;;;;;;;7.20;99.90;;;;;;5107838;28;1108;-68
2022/11/14 02:24:44;;;;;;;;;;;7.10;99.90;;;;;;5090400;28;1910;-68
2022/11/14 02:27:29;;;;;;;;;;;7.10;99.90;;;;;;5109042;28;1339;-68
2022/11/14 02:30:15;;;;;;;;;;;7.10;99.90;;;;;;5103546;28;1124;-68
2022/11/14 02:33:00;;;;;;;;;;;7.10;99.90;;;;;;5108636;28;1077;-68
2022/11/14 02:35:44;;;;;;;;;;;7.10;99.90;;;;;;5095363;28;1100;-68
2022/11/14 02:38:28;;;;;;;;;;;7.10;99.90;;;;;;5108867;28;1100;-68
2022/11/14 02:41:12;;;;;;;;;;;7.20;99.90;;;;;;5108473;28;1155;-68
2022/11/14 02:43:56;;;;;;;;;;;7.20;99.90;;;;;;5095798;28;1922;-68
2022/11/14 02:46:40;;;;;;;;;;;7.30;99.90;;;;;;5112372;28;1051;-67
2022/11/14 02:49:24;;;;;;;;;;;7.30;99.90;;;;;;5111816;28;1108;-68
2022/11/14 02:52:08;;;;;;;;;;;7.30;99.90;;;;;;5112416;28;1107;-68
2022/11/14 02:54:52;;;;;;;;;;;7.40;99.90;;;;;;5112011;28;1285;-67
2022/11/14 02:57:36;;;;;;;;;;;7.50;99.90;;;;;;5111174;28;1067;-68
2022/11/14 03:00:20;;;;;;;;;;;7.50;99.90;;;;;;5112053;28;1071;-68
2022/11/14 03:03:04;;;;;;;;;;;7.50;99.90;;;;;;5110988;28;1913;-67
2022/11/14 03:05:52;;;;;;;;;;;7.50;99.90;;;;;;5111715;28;1164;-68
2022/11/14 03:08:36;;;;;;;;;;;7.60;99.90;;;;;;5111521;28;1108;-68
2022/11/14 03:11:20;;;;;;;;;;;7.60;99.90;;;;;;5098277;28;1093;-67
2022/11/14 03:14:04;;;;;;;;;;;7.60;99.90;;;;;;5111828;28;1069;-68
2022/11/14 03:16:48;;;;;;;;;;;7.60;99.90;;;;;;5108212;28;1313;-67
2022/11/14 03:19:32;;;;;;;;;;;7.60;99.90;;;;;;5108930;28;1139;-68
2022/11/14 03:22:16;;;;;;;;;;;7.60;99.90;;;;;;5111753;28;1132;-68
2022/11/14 03:25:00;;;;;;;;;;;7.60;99.90;;;;;;5089442;28;1116;-68
2022/11/14 03:27:44;;;;;;;;;;;7.60;99.90;;;;;;5100347;28;1366;-68
2022/11/14 03:30:28;;;;;;;;;;;7.60;99.90;;;;;;5074557;28;1094;-68
2022/11/14 03:33:12;;;;;;;;;;;7.60;99.90;;;;;;5104825;28;1097;-68
2022/11/14 03:35:56;;;;;;;;;;;7.60;99.90;;;;;;5111042;28;1130;-68
2022/11/14 03:38:41;;;;;;;;;;;7.60;99.90;;;;;;5110492;28;1160;-67
2022/11/14 03:41:25;;;;;;;;;;;7.70;99.90;;;;;;5111508;28;1135;-68
2022/11/14 03:44:09;;;;;;;;;;;7.60;99.90;;;;;;5111209;28;1910;-67
2022/11/14 03:46:53;;;;;;;;;;;7.60;99.90;;;;;;5110646;28;1072;-68
2022/11/14 03:49:37;;;;;;;;;;;7.60;99.90;;;;;;5111031;28;1096;-68
2022/11/14 03:52:21;;;;;;;;;;;7.60;99.90;;;;;;5110377;28;1120;-68
2022/11/14 03:55:05;;;;;;;;;;;7.60;99.90;;;;;;5097712;28;1095;-67
2022/11/14 03:57:50;;;;;;;;;;;7.60;99.90;;;;;;5109876;28;1175;-67
2022/11/14 04:00:34;;;;;;;;;;;7.70;99.90;;;;;;5110134;28;1207;-68
2022/11/14 04:03:18;;;;;;;;;;;7.50;99.90;;;;;;5090154;28;1938;-68
2022/11/14 04:06:02;;;;;;;;;;;7.50;99.90;;;;;;5107523;28;1179;-68
2022/11/14 04:08:46;;;;;;;;;;;7.50;99.90;;;;;;5110715;28;1104;-68
2022/11/14 04:11:31;;;;;;;;;;;7.50;99.90;;;;;;5108332;28;1170;-68
2022/11/14 04:14:15;;;;;;;;;;;7.50;99.90;;;;;;5110010;28;1013;-68
2022/11/14 04:16:59;;;;;;;;;;;7.50;99.90;;;;;;5100909;28;1364;-68
2022/11/14 04:19:43;;;;;;;;;;;7.40;99.90;;;;;;5110253;28;1173;-68
2022/11/14 04:22:27;;;;;;;;;;;7.40;99.90;;;;;;5110088;28;1979;-68
2022/11/14 04:25:12;;;;;;;;;;;7.40;99.90;;;;;;5110517;28;1140;-67
2022/11/14 04:27:56;;;;;;;;;;;7.30;99.90;;;;;;5108765;28;1371;-68
2022/11/14 04:30:40;;;;;;;;;;;7.30;99.90;;;;;;5110366;28;1220;-68
2022/11/14 04:33:24;;;;;;;;;;;7.30;99.90;;;;;;5109681;28;1092;-67
2022/11/14 04:36:08;;;;;;;;;;;7.20;99.90;;;;;;5109498;28;1072;-67
2022/11/14 04:38:52;;;;;;;;;;;7.20;99.90;;;;;;5096538;28;1088;-68
2022/11/14 04:41:36;;;;;;;;;;;7.20;99.90;;;;;;5109045;28;1097;-68
2022/11/14 04:44:20;;;;;;;;;;;7.20;99.90;;;;;;5110243;28;1905;-68
2022/11/14 04:47:04;;;;;;;;;;;7.10;99.90;;;;;;5091430;28;1178;-68
2022/11/14 04:49:48;;;;;;;;;;;7.10;99.90;;;;;;5090556;28;1183;-68
2022/11/14 04:52:33;;;;;;;;;;;7.10;99.90;;;;;;5110245;28;1231;-68
2022/11/14 04:55:17;;;;;;;;;;;7.10;99.90;;;;;;5109485;28;1256;-68
2022/11/14 04:58:01;;;;;;;;;;;7.00;99.90;;;;;;5109820;28;1088;-68
2022/11/14 05:00:45;;;;;;;;;;;7.00;99.90;;;;;;5110009;28;1108;-68
2022/11/14 05:03:29;;;;;;;;;;;7.00;99.90;;;;;;5108451;28;1953;-68
2022/11/14 05:06:13;;;;;;;;;;;7.00;99.90;;;;;;5109377;28;1171;-67
2022/11/14 05:08:57;;;;;;;;;;;7.00;99.90;;;;;;5109487;28;1167;-68
2022/11/14 05:11:41;;;;;;;;;;;7.00;99.90;;;;;;5108172;28;1171;-67
2022/11/14 05:14:25;;;;;;;;;;;7.00;99.90;;;;;;5109760;28;1179;-67
2022/11/14 05:17:09;;;;;;;;;;;7.00;99.90;;;;;;5099912;28;1385;-68
2022/11/14 05:19:53;;;;;;;;;;;7.00;99.90;;;;;;5109385;28;1095;-68
2022/11/14 05:22:38;;;;;;;;;;;6.90;99.90;;;;;;5107667;28;1972;-67
2022/11/14 05:25:22;;;;;;;;;;;6.90;99.90;;;;;;5108603;28;1191;-68
2022/11/14 05:28:06;;;;;;;;;;;6.90;99.90;;;;;;5119585;27;1405;-67
2022/11/14 05:30:50;;;;;;;;;;;6.80;99.90;;;;;;5108496;28;1204;-67
2022/11/14 05:33:34;;;;;;;;;;;6.80;99.90;;;;;;5109099;28;1159;-67
2022/11/14 05:36:18;;;;;;;;;;;6.80;99.90;;;;;;5109413;28;1128;-67
2022/11/14 05:39:02;;;;;;;;;;;6.80;99.90;;;;;;5108462;28;1012;-67
2022/11/14 05:41:46;;;;;;;;;;;6.90;99.90;;;;;;5109136;28;1156;-68
2022/11/14 05:44:30;;;;;;;;;;;6.80;99.90;;;;;;5108893;28;1905;-67
2022/11/14 05:47:15;;;;;;;;;;;6.90;99.90;;;;;;5109170;28;1159;-68
2022/11/14 05:49:59;;;;;;;;;;;6.80;99.90;;;;;;5107954;28;1148;-68
2022/11/14 05:52:43;;;;;;;;;;;6.80;99.90;;;;;;5108520;28;1159;-68
2022/11/14 05:55:27;;;;;;;;;;;7.00;99.90;;;;;;5108469;28;1308;-68
2022/11/14 05:58:11;;;;;;;;;;;6.80;99.90;;;;;;5108698;28;1080;-67
2022/11/14 06:01:03;;;;;;;;;;;6.80;99.90;;;;;;5099462;28;1245;-68
2022/11/14 06:03:48;;;;;;;;;;;6.80;99.90;;;;;;5108572;28;1941;-67
2022/11/14 06:06:32;;;;;;;;;;;6.80;99.90;;;;;;5108007;28;1224;-67
2022/11/14 06:09:16;;;;;;;;;;;6.80;99.90;;;;;;5109075;28;1127;-68
2022/11/14 06:12:04;;;;;;;;;;;6.80;99.90;;;;;;5109087;28;1092;-68
2022/11/14 06:14:48;;;;;;;;;;;6.80;99.90;;;;;;5108315;28;1130;-67
2022/11/14 06:17:33;;;;;;;;;;;6.80;99.90;;;;;;5099358;28;1357;-68
2022/11/14 06:20:16;;;;;;;;;;;7.00;99.90;;;;;;5110218;28;1096;-68
2022/11/14 06:23:00;;;;;;;;;;;6.80;99.90;;;;;;5112113;28;1909;-68
2022/11/14 06:25:44;;;;;;;;;;;6.80;99.90;;;;;;5112526;28;1175;-68
2022/11/14 06:28:29;;;;;;;;;;;6.80;99.90;;;;;;5111899;28;1160;-68
2022/11/14 06:31:13;;;;;;;;;;;6.80;99.90;;;;;;5112535;28;1084;-68
2022/11/14 06:33:57;;;;;;;;;;;6.80;99.90;;;;;;5098925;28;1128;-68
2022/11/14 06:36:41;;;;;;;;;;;6.70;99.90;;;;;;5112747;28;1112;-68
2022/11/14 06:39:25;;;;;;;;;;;6.70;99.90;;;;;;5112215;28;1205;-68
2022/11/14 06:42:09;;;;;;;;;;;6.70;99.90;;;;;;5098965;28;1061;-68
2022/11/14 06:44:53;;;;;;;;;;;6.70;99.90;;;;;;5112414;28;1946;-68
2022/11/14 06:47:37;;;;;;;;;;;6.70;99.90;;;;;;5112077;28;1160;-68
2022/11/14 06:50:21;;;;;;;;;;;6.70;99.90;;;;;;5111318;28;1122;-68
2022/11/14 06:53:05;;;;;;;;;;;6.70;99.90;;;;;;5112274;28;1108;-68
2022/11/14 06:55:56;;;;;;;;;;;6.60;99.90;;;;;;5111333;28;1101;-68
2022/11/14 06:58:41;;;;;;;;;;;6.60;99.90;;;;;;5111773;27;1182;-68
2022/11/14 07:01:26;;;;;;;;;;;6.70;99.90;;;;;;5111981;28;1124;-68
2022/11/14 07:04:10;;;;;;;;;;;6.60;99.90;;;;;;5111285;28;1921;-68
2022/11/14 07:06:53;;;;;;;;;;;6.60;99.90;;;;;;5111571;28;1100;-68
2022/11/14 07:09:38;;;;;;;;;;;6.60;99.90;;;;;;5092862;28;1180;-68
2022/11/14 07:12:22;;;;;;;;;;;6.70;99.90;;;;;;5111987;28;1273;-68
2022/11/14 07:15:06;;;;;;;;;;;6.60;99.90;;;;;;5111115;28;1234;-68
2022/11/14 07:17:50;;;;;;;;;;;6.60;99.90;;;;;;5108953;28;1301;-68
2022/11/14 07:20:34;;;;;;;;;;;6.60;99.90;;;;;;5110741;28;1175;-68
2022/11/14 07:23:18;;;;;;;;;;;6.70;99.90;;;;;;5110902;28;1973;-68
2022/11/14 07:26:09;;;;;;;;;;;6.60;99.90;;;;;;5109372;28;1208;-68
2022/11/14 07:28:54;;;;;;;;;;;6.70;99.90;;;;;;5110413;28;1289;-68
2022/11/14 07:31:39;;;;;;;;;;;6.90;99.90;;;;;;5110423;28;1105;-68
2022/11/14 07:34:23;;;;;;;;;;;6.60;99.90;;;;;;5110711;28;1283;-68
2022/11/14 07:37:07;;;;;;;;;;;6.60;99.90;;;;;;5110656;28;1100;-68
2022/11/14 07:39:51;;;;;;;;;;;6.60;99.90;;;;;;5111193;28;1235;-68
2022/11/14 07:42:35;;;;;;;;;;;6.60;99.90;;;;;;5111066;28;1975;-68
2022/11/14 07:45:19;;;;;;;;;;;6.60;99.90;;;;;;5097792;28;1069;-68
2022/11/14 07:48:03;;;;;;;;;;;6.90;99.90;;;;;;5111041;28;1159;-68
2022/11/14 07:50:47;;;;;;;;;;;6.70;99.90;;;;;;5111025;28;1159;-68
2022/11/14 07:53:31;;;;;;;;;;;6.70;99.90;;;;;;5097476;28;1172;-67
2022/11/14 07:56:16;;;;;;;;;;;6.80;99.90;;;;;;5111249;28;1124;-68
2022/11/14 07:59:00;;;;;;;;;;;6.80;99.90;;;;;;5110084;28;1240;-68
2022/11/14 08:01:44;;;;;;;;;;;6.80;99.90;;;;;;5110177;28;909;-68
2022/11/14 08:04:28;;;;;;;;;;;6.80;99.90;;;;;;5110824;28;1968;-67
2022/11/14 08:07:12;;;;;;;;;;;6.80;99.90;;;;;;5110018;28;1143;-68
2022/11/14 08:09:55;;;;;;;;;;;6.80;99.90;;;;;;5110037;28;1181;-68
2022/11/14 08:12:40;;;;;;;;;;;6.80;99.90;;;;;;5091198;28;1120;-68
2022/11/14 08:15:24;;;;;;;;;;;6.90;99.90;;;;;;5107578;28;1199;-68
2022/11/14 08:18:08;;;;;;;;;;;6.90;99.90;;;;;;5109188;28;1582;-68
2022/11/14 08:20:56;;;;;;;;;;;6.90;99.90;;;;;;5109976;28;1140;-67
2022/11/14 08:23:40;;;;;;;;;;;6.90;99.90;;;;;;5109756;28;1914;-68
2022/11/14 08:26:24;;;;;;;;;;;6.90;99.90;;;;;;5108518;28;1263;-68
2022/11/14 08:29:08;;;;;;;;;;;7.00;99.90;;;;;;5109974;28;1266;-68
2022/11/14 08:31:52;;;;;;;;;;;7.10;99.90;;;;;;5109646;28;1091;-68
2022/11/14 08:34:36;;;;;;;;;;;7.10;99.90;;;;;;5109786;28;1076;-68
2022/11/14 08:37:21;;;;;;;;;;;7.10;99.90;;;;;;5110318;28;1163;-68
2022/11/14 08:40:05;;;;;;;;;;;7.10;99.90;;;;;;5088789;28;1137;-68
2022/11/14 08:42:50;;;;;;;;;;;7.10;99.90;;;;;;5101655;28;1910;-68
2022/11/14 08:45:34;;;;;;;;;;;7.20;99.90;;;;;;5109700;28;1158;-68
2022/11/14 08:48:19;;;;;;;;;;;7.20;99.90;;;;;;5109225;28;1231;-68
2022/11/14 08:51:04;;;;;;;;;;;7.20;99.90;;;;;;5109678;28;1211;-68
2022/11/14 08:53:50;;;;;;;;;;;7.30;99.90;;;;;;5109309;28;1308;-67
2022/11/14 08:56:34;;;;;;;;;;;7.30;99.90;;;;;;5109076;28;1112;-68
2022/11/14 08:59:18;;;;;;;;;;;7.30;99.90;;;;;;5109927;28;1108;-68
2022/11/14 09:02:02;;;;;;;;;;;7.40;99.90;;;;;;5108605;28;1152;-68
2022/11/14 09:04:46;;;;;;;;;;;7.40;99.90;;;;;;5093949;28;1909;-68
2022/11/14 09:07:31;;;;;;;;;;;7.60;99.90;;;;;;5109074;28;1203;-68
2022/11/14 09:10:15;;;;;;;;;;;7.50;99.90;;;;;;5108895;28;1331;-68
2022/11/14 09:13:00;;;;;;;;;;;7.50;99.90;;;;;;5099621;28;3652;-68
2022/11/14 09:15:45;;;;;;;;;;;7.60;99.90;;;;;;5106859;28;1223;-68
2022/11/14 09:18:29;;;;;;;;;;;7.70;99.90;;;;;;5086783;28;3485;-68
2022/11/14 09:21:13;;;;;;;;;;;7.70;99.90;;;;;;5106490;28;1604;-68
2022/11/14 09:23:58;;;;;;;;;;;7.80;99.90;;;;;;5107279;28;1913;-68
2022/11/14 09:26:42;;;;;;;;;;;7.80;99.90;;;;;;5109706;28;1085;-68
2022/11/14 09:29:26;;;;;;;;;;;7.90;99.90;;;;;;5104752;28;1336;-68
2022/11/14 09:32:10;;;;;;;;;;;7.90;99.90;;;;;;5108386;28;1132;-68
2022/11/14 09:34:54;;;;;;;;;;;7.90;99.90;;;;;;5108714;28;1291;-68
2022/11/14 09:37:38;;;;;;;;;;;7.90;99.90;;;;;;5108391;28;1270;-68
2022/11/14 09:40:23;;;;;;;;;;;7.90;99.90;;;;;;5082288;28;1168;-68
2022/11/14 09:43:26;;;;;;;;;;;7.90;99.90;;;;;;5107584;28;1925;-68
2022/11/14 09:46:19;;;;;;;;;;;7.90;99.90;;;;;;5107801;28;1156;-68
2022/11/14 09:49:08;;;;;;;;;;;8.00;99.90;;;;;;5106575;28;1500;-68
2022/11/14 09:51:57;;;;;;;;;;;8.00;99.90;;;;;;5106292;28;1208;-68
2022/11/14 09:54:52;;;;;;;;;;;8.20;99.90;;;;;;5111106;28;1278;-68
2022/11/14 09:57:36;;;;;;;;;;;8.10;99.90;;;;;;5107309;28;1104;-68
2022/11/14 10:00:22;;;;;;;;;;;8.10;99.90;;;;;;5112257;28;1191;-68
2022/11/14 10:03:06;;;;;;;;;;;8.10;99.90;;;;;;5113162;28;1913;-68
2022/11/14 10:06:06;;;;;;;;;;;8.10;99.90;;;;;;5112355;28;1214;-68
2022/11/14 10:08:55;;;;;;;;;;;8.10;99.90;;;;;;5110048;28;3523;-67
2022/11/14 10:11:44;;;;;;;;;;;8.10;99.90;;;;;;5107225;28;3529;-68
2022/11/14 10:14:39;;;;;;;;;;;8.10;99.90;;;;;;5111863;28;1290;-68
2022/11/14 10:17:48;;;;;;;;;;;8.10;99.90;;;;;;5103920;28;3470;-68
2022/11/14 10:20:50;;;;;;;;;;;8.10;99.90;;;;;;5111833;28;1350;-68
2022/11/14 10:23:53;;;;;;;;;;;8.20;99.90;;;;;;5112287;28;1906;-68
2022/11/14 10:26:46;;;;;;;;;;;8.30;99.90;;;;;;5099310;28;1088;-68
2022/11/14 10:29:39;;;;;;;;;;;8.40;99.90;;;;;;5107867;28;3431;-68
2022/11/14 10:32:39;;;;;;;;;;;8.60;99.90;;;;;;5112271;28;961;-68
2022/11/14 10:35:28;;;;;;;;;;;8.90;99.90;;;;;;5104510;28;1081;-68
2022/11/14 10:38:20;;;;;;;;;;;10.10;99.90;;;;;;5091772;28;1097;-68
2022/11/14 10:41:05;;;;;;;;;;;11.10;99.90;;;;;;5109492;28;1766;-68
2022/11/14 10:43:50;;;;;;;;;;;12.00;99.90;;;;;;5109824;28;1901;-68
2022/11/14 10:46:38;;;;;;;;;;;12.80;99.90;;;;;;5112097;28;1368;-68
2022/11/14 10:49:23;;;;;;;;;;;13.40;99.90;;;;;;5111657;28;1495;-68
2022/11/14 10:52:11;;;;;;;;;;;14.00;99.90;;;;;;5097424;28;1074;-68
2022/11/14 10:54:58;;;;;;;;;;;14.60;99.90;;;;;;5109810;28;1364;-68
2022/11/14 10:57:44;;;;;;;;;;;15.20;99.90;;;;;;5112033;28;1381;-68
2022/11/14 11:00:28;;;;;;;;;;;15.70;99.90;;;;;;5107860;28;1667;-68
2022/11/14 11:03:12;;;;;;;;;;;16.20;99.90;;;;;;5110824;28;1988;-68
2022/11/14 11:05:56;;;;;;;;;;;16.70;98.90;;;;;;5097338;28;1488;-68
2022/11/14 11:11:52;;;;;;;;;;;17.10;96.90;;;;;;5106816;28;1177;-68
2022/11/14 11:14:36;;;;;;;;;;;17.40;96.50;;;;;;5111396;28;1639;-68
2022/11/14 11:17:21;;;;;;;;;;;17.70;95.70;;;;;;5110831;28;1293;-68
2022/11/14 11:20:24;;;;;;;;;;;17.90;95.00;;;;;;5111872;28;1215;-68
2022/11/14 11:23:08;;;;;;;;;;;18.10;94.90;;;;;;5110935;28;1922;-68
2022/11/14 11:26:00;;;;;;;;;;;18.90;93.70;;;;;;5111261;28;1140;-68
2022/11/14 11:28:59;;;;;;;;;;;18.90;93.90;;;;;;5111184;28;1183;-68
2022/11/14 11:31:51;;;;;;;;;;;19.30;92.20;;;;;;5110935;28;1112;-68
2022/11/14 11:34:35;;;;;;;;;;;19.60;91.20;;;;;;5111343;28;1092;-68
2022/11/14 11:37:24;;;;;;;;;;;19.90;91.00;;;;;;5098785;28;1175;-68
2022/11/14 11:40:13;;;;;;;;;;;20.20;90.00;;;;;;5111452;28;1147;-68
2022/11/14 11:43:02;;;;;;;;;;;20.50;87.10;;;;;;5110996;28;1910;-68
2022/11/14 11:45:48;;;;;;;;;;;20.70;86.80;;;;;;5110859;28;1108;-68
2022/11/14 11:48:36;;;;;;;;;;;20.90;84.70;;;;;;5111154;28;1630;-68
2022/11/14 11:51:23;;;;;;;;;;;20.60;83.60;;;;;;5108958;28;1420;-68
2022/11/14 11:54:17;;;;;;;;;;;20.30;83.50;;;;;;5110509;28;1308;-68
2022/11/14 11:57:08;;;;;;;;;;;19.80;84.80;;;;;;5111143;28;1105;-68
2022/11/14 11:59:58;;;;;;;;;;;19.00;85.60;;;;;;5110513;28;1092;-68
2022/11/14 12:02:44;;;;;;;;;;;18.40;87.50;;;;;;5091994;28;1734;-68
2022/11/14 12:05:37;;;;;;;;;;;18.30;88.40;;;;;;5110079;28;985;-68
2022/11/14 12:08:27;;;;;;;;;;;18.30;88.80;;;;;;5111073;28;1155;-68
2022/11/14 12:11:15;;;;;;;;;;;18.10;88.80;;;;;;5110536;28;1261;-68
2022/11/14 12:14:18;;;;;;;;;;;17.80;90.50;;;;;;5107647;28;1294;-68
2022/11/14 12:17:09;;;;;;;;;;;18.20;90.50;;;;;;5106432;28;1380;-69
2022/11/14 12:19:54;;;;;;;;;;;18.60;88.80;;;;;;5085720;28;1204;-68
2022/11/14 12:22:45;;;;;;;;;;;18.70;87.90;;;;;;5109671;28;1136;-69
2022/11/14 12:25:47;;;;;;;;;;;18.50;88.70;;;;;;5109299;28;1238;-68
2022/11/14 12:28:35;;;;;;;;;;;18.50;88.90;;;;;;5107267;28;1326;-68
2022/11/14 12:31:20;;;;;;;;;;;18.20;88.80;;;;;;5110429;28;1036;-68
2022/11/14 12:34:12;;;;;;;;;;;18.10;90.60;;;;;;5107594;28;1168;-68
2022/11/14 12:36:56;;;;;;;;;;;18.30;90.10;;;;;;5108112;28;1127;-69
2022/11/14 12:39:41;;;;;;;;;;;18.70;89.60;;;;;;5108403;28;1097;-69
2022/11/14 12:42:25;;;;;;;;;;;18.90;87.10;;;;;;5107830;28;1104;-69
2022/11/14 12:45:28;;;;;;;;;;;18.70;86.20;;;;;;5108312;28;1897;-69
2022/11/14 12:48:14;;;;;;;;;;;18.50;87.10;;;;;;5108962;28;1361;-69
2022/11/14 12:51:05;;;;;;;;;;;18.30;87.20;;;;;;5100441;27;1367;-67
2022/11/14 12:53:49;;;;;;;;;;;18.20;87.60;;;;;;5105557;28;1111;-67
2022/11/14 12:56:34;;;;;;;;;;;18.40;88.40;;;;;;5085996;28;1120;-67
2022/11/14 12:59:24;;;;;;;;;;;18.60;86.00;;;;;;5086448;28;1004;-67
2022/11/14 13:02:24;;;;;;;;;;;18.80;85.60;;;;;;5085781;28;1104;-67
2022/11/14 13:05:17;;;;;;;;;;;18.90;84.90;;;;;;5075218;28;1082;-67
2022/11/14 13:08:15;;;;;;;;;;;18.70;84.60;;;;;;5079034;28;3595;-66
2022/11/14 13:10:59;;;;;;;;;;;18.70;85.30;;;;;;5084839;28;1910;-67
2022/11/14 13:23:25;;;;;;;;;;;19.20;82.20;;;;;;5078690;28;1178;-67
2022/11/14 13:26:09;;;;;;;;;;;19.10;83.10;;;;;;5085141;28;3508;-67
2022/11/14 13:28:53;;;;;;;;;;;19.10;82.50;;;;;;5075667;28;1902;-66
2022/11/14 13:31:37;;;;;;;;;;;19.00;82.70;;;;;;5083821;28;1373;-66
2022/11/14 13:34:32;;;;;;;;;;;18.90;82.90;;;;;;5090387;28;1172;-67
2022/11/14 13:37:18;;;;;;;;;;;18.80;82.30;;;;;;5085538;28;1231;-67
2022/11/14 13:40:02;;;;;;;;;;;18.60;83.20;;;;;;5077148;28;1475;-66
2022/11/14 13:43:01;;;;;;;;;;;18.40;83.40;;;;;;5076799;28;2005;-67
2022/11/14 13:45:45;;;;;;;;;;;18.20;84.20;;;;;;5084985;28;1931;-67
2022/11/14 13:48:29;;;;;;;;;;;17.80;85.00;;;;;;5083568;28;1598;-67
2022/11/14 13:51:15;;;;;;;;;;;17.60;86.30;;;;;;5081000;28;1111;-67
2022/11/14 13:53:59;;;;;;;;;;;17.50;87.00;;;;;;5077025;28;1123;-67
2022/11/14 13:57:10;;;;;;;;;;;17.50;87.90;;;;;;5083594;28;1564;-66
2022/11/14 13:59:53;;;;;;;;;;;17.50;87.60;;;;;;5071204;28;1542;-66
2022/11/14 14:03:04;;;;;;;;;;;17.50;86.90;;;;;;5063645;28;1308;-67
2022/11/14 14:05:58;;;;;;;;;;;17.50;87.50;;;;;;5082426;28;1131;-67
2022/11/14 14:08:42;;;;;;;;;;;17.40;87.70;;;;;;5083661;28;1981;-66
2022/11/14 14:11:31;;;;;;;;;;;17.40;87.70;;;;;;5058721;28;1088;-67
2022/11/14 14:14:32;;;;;;;;;;;17.30;88.20;;;;;;5075872;28;1100;-66
2022/11/14 14:17:22;;;;;;;;;;;17.20;88.70;;;;;;5078409;28;1309;-66
2022/11/14 14:20:18;;;;;;;;;;;17.20;88.70;;;;;;5074929;28;1119;-66
2022/11/14 14:23:08;;;;;;;;;;;17.20;89.20;;;;;;5055375;28;1163;-66
2022/11/14 14:26:09;;;;;;;;;;;17.20;88.90;;;;;;5057822;28;1072;-66
2022/11/14 14:29:10;;;;;;;;;;;17.20;88.80;;;;;;5065469;28;1906;-66
2022/11/14 14:32:04;;;;;;;;;;;17.10;89.00;;;;;;5086766;28;1152;-66
2022/11/14 14:34:48;;;;;;;;;;;16.90;89.40;;;;;;5090586;28;1127;-66
2022/11/14 14:37:32;;;;;;;;;;;16.70;90.30;;;;;;5061204;28;1104;-66
2022/11/14 14:40:22;;;;;;;;;;;16.60;90.60;;;;;;5069415;28;1147;-66
2022/11/14 14:43:12;;;;;;;;;;;16.50;90.40;;;;;;5086335;28;1156;-66
2022/11/14 14:45:56;;;;;;;;;;;16.20;90.60;;;;;;5067515;28;1188;-66
2022/11/14 14:48:42;;;;;;;;;;;15.90;90.90;;;;;;5062173;28;1969;-65
2022/11/14 14:51:34;;;;;;;;;;;15.60;91.60;;;;;;5086892;28;1606;-66
2022/11/14 14:54:20;;;;;;;;;;;15.40;92.20;;;;;;5099319;28;1179;-66
2022/11/14 14:57:04;;;;;;;;;;;15.20;92.60;;;;;;5092688;28;1313;-66
2022/11/14 14:59:58;;;;;;;;;;;15.00;93.20;;;;;;5093006;28;1174;-66
2022/11/14 15:02:42;;;;;;;;;;;14.80;93.60;;;;;;5079549;28;1597;-66
2022/11/14 15:05:27;;;;;;;;;;;14.70;93.90;;;;;;5090145;28;1302;-66
2022/11/14 15:08:14;;;;;;;;;;;14.50;94.40;;;;;;5079223;28;1185;-66
2022/11/14 15:10:59;;;;;;;;;;;14.40;95.00;;;;;;5085750;28;1926;-66
2022/11/14 15:13:51;;;;;;;;;;;14.40;95.90;;;;;;5089069;28;1144;-66
2022/11/14 15:16:35;;;;;;;;;;;14.30;95.90;;;;;;5086720;28;1290;-66
2022/11/14 15:19:21;;;;;;;;;;;13.90;95.90;;;;;;5090270;28;1116;-66
2022/11/14 15:22:09;;;;;;;;;;;13.50;96.80;;;;;;5087467;28;1407;-66
2022/11/14 15:25:04;;;;;;;;;;;13.00;97.90;;;;;;5089251;28;1182;-66
2022/11/14 15:27:52;;;;;;;;;;;12.20;99.90;;;;;;5087802;28;2566;-66
2022/11/14 15:30:36;;;;;;;;;;;11.50;99.90;;;;;;5087752;28;3248;-66
2022/11/14 15:33:27;;;;;;;;;;;10.90;99.90;;;;;;5099835;28;1197;-66
2022/11/14 15:36:16;;;;;;;;;;;10.50;99.90;;;;;;5074445;28;1143;-66
2022/11/14 15:39:23;;;;;;;;;;;10.10;99.90;;;;;;5090631;28;1116;-66
2022/11/14 15:42:14;;;;;;;;;;;9.80;99.90;;;;;;5075315;28;1264;-66
2022/11/14 15:44:58;;;;;;;;;;;9.60;99.90;;;;;;5086059;28;1148;-65
2022/11/14 15:47:43;;;;;;;;;;;9.40;99.90;;;;;;5088562;28;1295;-65
2022/11/14 15:50:28;;;;;;;;;;;9.20;99.90;;;;;;5085216;28;2006;-66
2022/11/14 15:53:20;;;;;;;;;;;9.00;99.90;;;;;;5070530;28;1204;-66
2022/11/14 15:56:07;;;;;;;;;;;8.80;99.90;;;;;;5089563;28;1167;-66
2022/11/14 15:58:51;;;;;;;;;;;8.70;99.90;;;;;;5089199;28;1124;-66
2022/11/14 16:01:35;;;;;;;;;;;8.60;99.90;;;;;;5088933;28;1104;-68
2022/11/14 16:04:21;;;;;;;;;;;8.40;99.90;;;;;;5089076;28;1152;-68
2022/11/14 16:07:09;;;;;;;;;;;8.30;99.90;;;;;;5089948;28;1112;-67
2022/11/14 16:09:54;;;;;;;;;;;8.20;99.90;;;;;;5088996;28;1910;-67
2022/11/14 16:12:38;;;;;;;;;;;8.10;99.90;;;;;;5089045;28;1159;-67
2022/11/14 16:15:22;;;;;;;;;;;8.10;99.90;;;;;;5089870;28;1112;-68
2022/11/14 16:18:06;;;;;;;;;;;8.00;99.90;;;;;;5082826;28;1658;-67
2022/11/14 16:20:50;;;;;;;;;;;7.90;99.90;;;;;;5089352;28;1012;-67
2022/11/14 16:23:34;;;;;;;;;;;7.90;99.90;;;;;;5088461;28;1108;-67
2022/11/14 16:26:18;;;;;;;;;;;7.80;99.90;;;;;;5088328;28;1272;-67
2022/11/14 16:29:02;;;;;;;;;;;7.80;99.90;;;;;;5084176;28;1914;-67
2022/11/14 16:31:47;;;;;;;;;;;7.80;99.90;;;;;;5109140;28;937;-67
2022/11/14 16:34:31;;;;;;;;;;;7.80;99.90;;;;;;5109863;28;1159;-67
2022/11/14 16:37:15;;;;;;;;;;;7.90;99.90;;;;;;5090900;28;1121;-67
2022/11/14 16:39:59;;;;;;;;;;;7.90;99.90;;;;;;5088300;28;1164;-67
2022/11/14 16:42:44;;;;;;;;;;;7.90;99.90;;;;;;5088948;28;1100;-67
2022/11/14 16:45:28;;;;;;;;;;;8.00;99.90;;;;;;5088844;28;1189;-67